sensor_id;sensor_type;location;lat;lon;timestamp;noise_LAeq;noise_LA_min;noise_LA_max;noise_LA01;noise_LA95
71034;Laerm;58847;52.378;4.740;2023-02-18T00:00:10;48.61;47.22;51.55;;
71034;Laerm;58847;52.378;4.740;2023-02-18T00:00:20;48.73;47.28;51.26;;
71034;Laerm;58847;52.378;4.740;2023-02-18T00:00:32;48.72;47.43;51.45;;
71034;Laerm;58847;52.378;4.740;2023-02-18T00:00:42;48.60;47.44;51.33;;
71034;Laerm;58847;52.378;4.740;2023-02-18T00:00:53;48.95;47.44;51.48;;
71034;Laerm;58847;52.378;4.740;2023-02-18T00:01:07;49.34;47.91;52.76;;
71034;Laerm;58847;52.378;4.740;2023-02-18T00:01:18;49.23;47.59;51.81;;
71034;Laerm;58847;52.378;4.740;2023-02-18T00:01:29;49.12;47.46;52.63;;
71034;Laerm;58847;52.378;4.740;2023-02-18T00:01:39;48.53;47.31;51.98;;
71034;Laerm;58847;52.378;4.740;2023-02-18T00:01:50;49.01;47.44;51.87;;
71034;Laerm;58847;52.378;4.740;2023-02-18T00:02:00;48.40;46.99;51.29;;
71034;Laerm;58847;52.378;4.740;2023-02-18T00:02:10;48.39;47.04;51.01;;
71034;Laerm;58847;52.378;4.740;2023-02-18T00:02:21;48.39;47.17;51.08;;
71034;Laerm;58847;52.378;4.740;2023-02-18T00:02:31;48.86;47.36;57.29;;
71034;Laerm;58847;52.378;4.740;2023-02-18T00:02:42;48.39;46.80;51.04;;
71034;Laerm;58847;52.378;4.740;2023-02-18T00:02:52;48.32;47.22;51.16;;
71034;Laerm;58847;52.378;4.740;2023-02-18T00:03:04;48.46;46.89;58.58;;
71034;Laerm;58847;52.378;4.740;2023-02-18T00:03:14;48.56;47.08;52.13;;
71034;Laerm;58847;52.378;4.740;2023-02-18T00:03:28;48.82;47.45;51.60;;
71034;Laerm;58847;52.378;4.740;2023-02-18T00:03:38;48.64;47.18;50.53;;
71034;Laerm;58847;52.378;4.740;2023-02-18T00:03:50;48.47;47.02;52.10;;
71034;Laerm;58847;52.378;4.740;2023-02-18T00:04:00;48.73;46.92;51.24;;
71034;Laerm;58847;52.378;4.740;2023-02-18T00:04:11;48.58;47.20;51.33;;
71034;Laerm;58847;52.378;4.740;2023-02-18T00:04:21;48.42;47.29;51.39;;
71034;Laerm;58847;52.378;4.740;2023-02-18T00:04:32;48.55;47.20;51.64;;
71034;Laerm;58847;52.378;4.740;2023-02-18T00:04:42;48.47;47.09;51.07;;
71034;Laerm;58847;52.378;4.740;2023-02-18T00:04:53;48.47;47.34;50.69;;
71034;Laerm;58847;52.378;4.740;2023-02-18T00:05:03;48.59;47.25;57.66;;
71034;Laerm;58847;52.378;4.740;2023-02-18T00:05:14;48.43;47.17;52.30;;
71034;Laerm;58847;52.378;4.740;2023-02-18T00:05:24;48.39;46.99;52.77;;
71034;Laerm;58847;52.378;4.740;2023-02-18T00:05:34;48.50;46.94;51.78;;
71034;Laerm;58847;52.378;4.740;2023-02-18T00:05:45;48.41;47.07;51.71;;
71034;Laerm;58847;52.378;4.740;2023-02-18T00:05:55;48.44;47.05;51.36;;
71034;Laerm;58847;52.378;4.740;2023-02-18T00:06:18;48.41;47.28;51.37;;
71034;Laerm;58847;52.378;4.740;2023-02-18T00:06:30;48.25;46.99;51.64;;
71034;Laerm;58847;52.378;4.740;2023-02-18T00:06:40;48.34;46.98;51.50;;
71034;Laerm;58847;52.378;4.740;2023-02-18T00:06:51;48.55;46.64;51.73;;
71034;Laerm;58847;52.378;4.740;2023-02-18T00:07:01;48.60;47.00;51.48;;
71034;Laerm;58847;52.378;4.740;2023-02-18T00:07:11;48.90;47.13;60.10;;
71034;Laerm;58847;52.378;4.740;2023-02-18T00:07:21;48.34;47.09;54.34;;
71034;Laerm;58847;52.378;4.740;2023-02-18T00:07:35;48.24;46.77;51.92;;
71034;Laerm;58847;52.378;4.740;2023-02-18T00:07:45;48.54;47.10;52.46;;
71034;Laerm;58847;52.378;4.740;2023-02-18T00:07:56;48.66;47.20;57.80;;
71034;Laerm;58847;52.378;4.740;2023-02-18T00:08:06;48.64;47.13;50.61;;
71034;Laerm;58847;52.378;4.740;2023-02-18T00:08:16;48.51;47.16;51.35;;
71034;Laerm;58847;52.378;4.740;2023-02-18T00:08:26;48.45;47.02;51.34;;
71034;Laerm;58847;52.378;4.740;2023-02-18T00:08:37;48.29;47.06;51.08;;
71034;Laerm;58847;52.378;4.740;2023-02-18T00:08:47;48.43;47.07;50.94;;
71034;Laerm;58847;52.378;4.740;2023-02-18T00:08:58;48.48;47.24;51.64;;
71034;Laerm;58847;52.378;4.740;2023-02-18T00:09:11;48.59;47.14;51.43;;
71034;Laerm;58847;52.378;4.740;2023-02-18T00:09:21;48.84;47.57;51.68;;
71034;Laerm;58847;52.378;4.740;2023-02-18T00:09:31;48.60;47.21;51.84;;
71034;Laerm;58847;52.378;4.740;2023-02-18T00:09:42;48.71;47.16;51.91;;
71034;Laerm;58847;52.378;4.740;2023-02-18T00:09:52;48.70;46.90;51.43;;
71034;Laerm;58847;52.378;4.740;2023-02-18T00:10:03;48.40;47.10;51.22;;
71034;Laerm;58847;52.378;4.740;2023-02-18T00:10:14;48.55;47.24;53.36;;
71034;Laerm;58847;52.378;4.740;2023-02-18T00:10:24;48.36;47.17;51.94;;
71034;Laerm;58847;52.378;4.740;2023-02-18T00:10:34;48.53;47.22;51.32;;
71034;Laerm;58847;52.378;4.740;2023-02-18T00:10:45;48.43;47.15;50.96;;
71034;Laerm;58847;52.378;4.740;2023-02-18T00:10:55;48.50;47.29;51.95;;
71034;Laerm;58847;52.378;4.740;2023-02-18T00:11:05;48.79;47.08;51.50;;
71034;Laerm;58847;52.378;4.740;2023-02-18T00:11:16;48.36;47.26;50.98;;
71034;Laerm;58847;52.378;4.740;2023-02-18T00:11:28;48.62;47.17;57.36;;
71034;Laerm;58847;52.378;4.740;2023-02-18T00:11:38;48.53;47.00;51.22;;
71034;Laerm;58847;52.378;4.740;2023-02-18T00:11:49;48.55;47.27;51.58;;
71034;Laerm;58847;52.378;4.740;2023-02-18T00:11:59;48.59;47.29;50.34;;
71034;Laerm;58847;52.378;4.740;2023-02-18T00:12:09;48.92;47.01;57.72;;
71034;Laerm;58847;52.378;4.740;2023-02-18T00:12:19;48.48;47.35;51.47;;
71034;Laerm;58847;52.378;4.740;2023-02-18T00:12:29;48.89;47.57;51.97;;
71034;Laerm;58847;52.378;4.740;2023-02-18T00:12:40;49.16;47.37;51.90;;
71034;Laerm;58847;52.378;4.740;2023-02-18T00:12:50;48.87;47.14;52.03;;
71034;Laerm;58847;52.378;4.740;2023-02-18T00:13:00;48.52;47.12;51.90;;
71034;Laerm;58847;52.378;4.740;2023-02-18T00:13:11;48.67;47.29;53.25;;
71034;Laerm;58847;52.378;4.740;2023-02-18T00:13:21;48.79;47.43;51.42;;
71034;Laerm;58847;52.378;4.740;2023-02-18T00:13:31;48.71;47.28;51.95;;
71034;Laerm;58847;52.378;4.740;2023-02-18T00:13:42;48.80;47.32;57.63;;
71034;Laerm;58847;52.378;4.740;2023-02-18T00:13:53;48.55;47.32;51.96;;
71034;Laerm;58847;52.378;4.740;2023-02-18T00:14:05;48.72;47.37;51.28;;
71034;Laerm;58847;52.378;4.740;2023-02-18T00:14:15;48.53;47.13;52.09;;
71034;Laerm;58847;52.378;4.740;2023-02-18T00:14:26;48.62;47.09;50.72;;
71034;Laerm;58847;52.378;4.740;2023-02-18T00:14:37;48.74;47.32;52.14;;
71034;Laerm;58847;52.378;4.740;2023-02-18T00:14:47;48.64;47.28;51.18;;
71034;Laerm;58847;52.378;4.740;2023-02-18T00:14:57;48.44;47.05;51.65;;
71034;Laerm;58847;52.378;4.740;2023-02-18T00:15:07;48.18;47.07;51.02;;
71034;Laerm;58847;52.378;4.740;2023-02-18T00:15:18;48.26;46.88;50.97;;
71034;Laerm;58847;52.378;4.740;2023-02-18T00:15:28;48.21;47.03;51.83;;
71034;Laerm;58847;52.378;4.740;2023-02-18T00:15:39;48.10;46.85;50.96;;
71034;Laerm;58847;52.378;4.740;2023-02-18T00:15:49;48.24;47.23;51.45;;
71034;Laerm;58847;52.378;4.740;2023-02-18T00:16:00;48.46;47.11;51.20;;
71034;Laerm;58847;52.378;4.740;2023-02-18T00:16:11;48.05;46.81;53.19;;
71034;Laerm;58847;52.378;4.740;2023-02-18T00:16:21;48.36;47.01;51.54;;
71034;Laerm;58847;52.378;4.740;2023-02-18T00:16:32;48.34;46.95;51.26;;
71034;Laerm;58847;52.378;4.740;2023-02-18T00:16:42;48.64;47.00;51.89;;
71034;Laerm;58847;52.378;4.740;2023-02-18T00:16:53;48.19;47.01;51.42;;
71034;Laerm;58847;52.378;4.740;2023-02-18T00:17:03;48.03;47.00;50.68;;
71034;Laerm;58847;52.378;4.740;2023-02-18T00:17:13;48.45;47.04;51.41;;
71034;Laerm;58847;52.378;4.740;2023-02-18T00:17:24;47.93;46.87;51.28;;
71034;Laerm;58847;52.378;4.740;2023-02-18T00:17:34;48.25;46.83;59.54;;
71034;Laerm;58847;52.378;4.740;2023-02-18T00:17:44;48.15;47.06;51.15;;
71034;Laerm;58847;52.378;4.740;2023-02-18T00:17:54;48.20;46.88;51.00;;
71034;Laerm;58847;52.378;4.740;2023-02-18T00:18:05;48.50;46.58;52.02;;
71034;Laerm;58847;52.378;4.740;2023-02-18T00:18:15;48.62;47.29;52.55;;
71034;Laerm;58847;52.378;4.740;2023-02-18T00:18:25;48.19;46.99;51.45;;
71034;Laerm;58847;52.378;4.740;2023-02-18T00:18:36;48.48;47.20;60.24;;
71034;Laerm;58847;52.378;4.740;2023-02-18T00:18:47;48.55;47.02;60.56;;
71034;Laerm;58847;52.378;4.740;2023-02-18T00:18:58;48.19;47.20;51.30;;
71034;Laerm;58847;52.378;4.740;2023-02-18T00:19:15;48.39;47.31;50.95;;
71034;Laerm;58847;52.378;4.740;2023-02-18T00:19:26;48.61;47.11;51.85;;
71034;Laerm;58847;52.378;4.740;2023-02-18T00:19:36;48.62;47.60;51.33;;
71034;Laerm;58847;52.378;4.740;2023-02-18T00:19:46;48.50;47.38;50.76;;
71034;Laerm;58847;52.378;4.740;2023-02-18T00:19:57;48.72;47.33;51.26;;
71034;Laerm;58847;52.378;4.740;2023-02-18T00:20:07;48.59;47.65;51.31;;
71034;Laerm;58847;52.378;4.740;2023-02-18T00:20:18;48.51;47.52;51.40;;
71034;Laerm;58847;52.378;4.740;2023-02-18T00:20:28;48.60;47.50;51.54;;
71034;Laerm;58847;52.378;4.740;2023-02-18T00:20:38;48.75;47.60;52.29;;
71034;Laerm;58847;52.378;4.740;2023-02-18T00:20:48;48.55;46.95;51.42;;
71034;Laerm;58847;52.378;4.740;2023-02-18T00:20:59;48.74;47.45;52.31;;
71034;Laerm;58847;52.378;4.740;2023-02-18T00:21:09;48.78;47.62;51.78;;
71034;Laerm;58847;52.378;4.740;2023-02-18T00:21:19;48.62;47.33;51.79;;
71034;Laerm;58847;52.378;4.740;2023-02-18T00:21:29;48.65;47.41;51.53;;
71034;Laerm;58847;52.378;4.740;2023-02-18T00:21:40;48.91;47.75;51.16;;
71034;Laerm;58847;52.378;4.740;2023-02-18T00:21:50;49.01;47.77;51.88;;
71034;Laerm;58847;52.378;4.740;2023-02-18T00:22:00;48.98;47.61;51.85;;
71034;Laerm;58847;52.378;4.740;2023-02-18T00:22:11;49.26;47.81;51.55;;
71034;Laerm;58847;52.378;4.740;2023-02-18T00:22:21;49.14;47.88;51.71;;
71034;Laerm;58847;52.378;4.740;2023-02-18T00:22:31;49.21;47.87;51.96;;
71034;Laerm;58847;52.378;4.740;2023-02-18T00:22:42;49.02;47.84;51.44;;
71034;Laerm;58847;52.378;4.740;2023-02-18T00:22:52;49.11;47.89;51.85;;
71034;Laerm;58847;52.378;4.740;2023-02-18T00:23:02;49.28;47.44;51.65;;
71034;Laerm;58847;52.378;4.740;2023-02-18T00:23:12;49.60;48.09;57.48;;
71034;Laerm;58847;52.378;4.740;2023-02-18T00:23:23;49.19;47.90;52.12;;
71034;Laerm;58847;52.378;4.740;2023-02-18T00:23:34;49.31;47.80;52.47;;
71034;Laerm;58847;52.378;4.740;2023-02-18T00:23:44;48.96;47.81;51.80;;
71034;Laerm;58847;52.378;4.740;2023-02-18T00:23:55;48.87;47.38;51.39;;
71034;Laerm;58847;52.378;4.740;2023-02-18T00:24:05;48.88;47.49;51.56;;
71034;Laerm;58847;52.378;4.740;2023-02-18T00:24:16;49.13;47.68;58.75;;
71034;Laerm;58847;52.378;4.740;2023-02-18T00:24:26;48.89;47.71;52.07;;
71034;Laerm;58847;52.378;4.740;2023-02-18T00:24:37;48.49;46.90;50.86;;
71034;Laerm;58847;52.378;4.740;2023-02-18T00:24:47;48.41;47.18;50.95;;
71034;Laerm;58847;52.378;4.740;2023-02-18T00:24:57;48.34;46.49;51.24;;
71034;Laerm;58847;52.378;4.740;2023-02-18T00:25:07;48.83;47.33;51.38;;
71034;Laerm;58847;52.378;4.740;2023-02-18T00:25:18;49.06;47.72;51.83;;
71034;Laerm;58847;52.378;4.740;2023-02-18T00:25:28;49.08;47.80;51.85;;
71034;Laerm;58847;52.378;4.740;2023-02-18T00:25:38;49.39;47.55;58.28;;
71034;Laerm;58847;52.378;4.740;2023-02-18T00:25:48;49.02;47.80;51.36;;
71034;Laerm;58847;52.378;4.740;2023-02-18T00:26:03;49.21;47.77;51.25;;
71034;Laerm;58847;52.378;4.740;2023-02-18T00:26:14;48.97;47.29;51.02;;
71034;Laerm;58847;52.378;4.740;2023-02-18T00:26:24;48.81;47.16;51.10;;
71034;Laerm;58847;52.378;4.740;2023-02-18T00:26:35;49.15;47.85;51.98;;
71034;Laerm;58847;52.378;4.740;2023-02-18T00:26:45;49.23;47.75;52.29;;
71034;Laerm;58847;52.378;4.740;2023-02-18T00:26:55;49.26;47.82;51.27;;
71034;Laerm;58847;52.378;4.740;2023-02-18T00:27:05;48.83;47.29;52.81;;
71034;Laerm;58847;52.378;4.740;2023-02-18T00:27:16;48.57;47.31;51.12;;
71034;Laerm;58847;52.378;4.740;2023-02-18T00:27:26;48.86;47.22;51.70;;
71034;Laerm;58847;52.378;4.740;2023-02-18T00:27:36;48.72;47.44;51.28;;
71034;Laerm;58847;52.378;4.740;2023-02-18T00:27:47;49.06;47.62;51.50;;
71034;Laerm;58847;52.378;4.740;2023-02-18T00:27:57;49.20;47.66;50.92;;
71034;Laerm;58847;52.378;4.740;2023-02-18T00:28:07;48.96;47.53;51.64;;
71034;Laerm;58847;52.378;4.740;2023-02-18T00:28:17;48.74;47.48;52.50;;
71034;Laerm;58847;52.378;4.740;2023-02-18T00:28:27;48.84;47.52;51.34;;
71034;Laerm;58847;52.378;4.740;2023-02-18T00:28:38;49.14;47.91;51.71;;
71034;Laerm;58847;52.378;4.740;2023-02-18T00:28:49;49.09;47.42;52.14;;
71034;Laerm;58847;52.378;4.740;2023-02-18T00:29:01;48.53;47.20;51.73;;
71034;Laerm;58847;52.378;4.740;2023-02-18T00:29:11;48.90;47.22;51.94;;
71034;Laerm;58847;52.378;4.740;2023-02-18T00:29:22;48.77;47.33;58.75;;
71034;Laerm;58847;52.378;4.740;2023-02-18T00:29:32;48.63;47.39;51.53;;
71034;Laerm;58847;52.378;4.740;2023-02-18T00:29:42;48.71;47.47;51.51;;
71034;Laerm;58847;52.378;4.740;2023-02-18T00:29:52;49.13;47.37;57.62;;
71034;Laerm;58847;52.378;4.740;2023-02-18T00:30:03;49.07;47.74;51.50;;
71034;Laerm;58847;52.378;4.740;2023-02-18T00:30:13;49.14;47.39;51.70;;
71034;Laerm;58847;52.378;4.740;2023-02-18T00:30:24;48.82;47.48;51.55;;
71034;Laerm;58847;52.378;4.740;2023-02-18T00:30:34;48.80;47.50;51.63;;
71034;Laerm;58847;52.378;4.740;2023-02-18T00:30:44;48.83;47.59;51.29;;
71034;Laerm;58847;52.378;4.740;2023-02-18T00:30:54;49.04;47.40;50.93;;
71034;Laerm;58847;52.378;4.740;2023-02-18T00:31:09;49.04;47.21;51.53;;
71034;Laerm;58847;52.378;4.740;2023-02-18T00:31:23;49.06;47.60;51.60;;
71034;Laerm;58847;52.378;4.740;2023-02-18T00:31:34;49.25;47.64;52.17;;
71034;Laerm;58847;52.378;4.740;2023-02-18T00:31:45;49.18;47.51;58.65;;
71034;Laerm;58847;52.378;4.740;2023-02-18T00:31:55;49.19;47.43;51.74;;
71034;Laerm;58847;52.378;4.740;2023-02-18T00:32:06;48.90;47.25;57.51;;
71034;Laerm;58847;52.378;4.740;2023-02-18T00:32:16;49.05;47.37;51.46;;
71034;Laerm;58847;52.378;4.740;2023-02-18T00:32:26;49.09;47.47;51.88;;
71034;Laerm;58847;52.378;4.740;2023-02-18T00:32:36;49.22;47.81;57.13;;
71034;Laerm;58847;52.378;4.740;2023-02-18T00:32:47;49.02;47.26;51.63;;
71034;Laerm;58847;52.378;4.740;2023-02-18T00:32:57;49.05;47.63;51.72;;
71034;Laerm;58847;52.378;4.740;2023-02-18T00:33:07;49.12;47.88;51.75;;
71034;Laerm;58847;52.378;4.740;2023-02-18T00:33:18;48.94;47.39;51.24;;
71034;Laerm;58847;52.378;4.740;2023-02-18T00:33:28;49.16;47.90;51.75;;
71034;Laerm;58847;52.378;4.740;2023-02-18T00:33:38;49.15;47.29;51.36;;
71034;Laerm;58847;52.378;4.740;2023-02-18T00:33:49;49.09;47.35;56.96;;
71034;Laerm;58847;52.378;4.740;2023-02-18T00:33:59;49.04;47.42;51.55;;
71034;Laerm;58847;52.378;4.740;2023-02-18T00:34:11;48.98;47.47;51.42;;
71034;Laerm;58847;52.378;4.740;2023-02-18T00:34:22;48.94;47.59;51.34;;
71034;Laerm;58847;52.378;4.740;2023-02-18T00:34:32;48.99;47.54;51.51;;
71034;Laerm;58847;52.378;4.740;2023-02-18T00:34:42;49.02;47.22;52.88;;
71034;Laerm;58847;52.378;4.740;2023-02-18T00:34:53;48.85;47.52;51.24;;
71034;Laerm;58847;52.378;4.740;2023-02-18T00:35:03;48.78;47.39;50.74;;
71034;Laerm;58847;52.378;4.740;2023-02-18T00:35:14;48.95;47.38;52.05;;
71034;Laerm;58847;52.378;4.740;2023-02-18T00:35:24;48.81;47.42;52.27;;
71034;Laerm;58847;52.378;4.740;2023-02-18T00:35:34;48.79;47.43;51.42;;
71034;Laerm;58847;52.378;4.740;2023-02-18T00:35:45;49.05;47.44;52.35;;
71034;Laerm;58847;52.378;4.740;2023-02-18T00:36:00;48.85;47.41;51.98;;
71034;Laerm;58847;52.378;4.740;2023-02-18T00:36:11;48.86;47.53;51.67;;
71034;Laerm;58847;52.378;4.740;2023-02-18T00:36:22;48.97;47.20;51.45;;
71034;Laerm;58847;52.378;4.740;2023-02-18T00:36:33;48.95;47.55;51.45;;
71034;Laerm;58847;52.378;4.740;2023-02-18T00:36:43;48.89;47.50;58.51;;
71034;Laerm;58847;52.378;4.740;2023-02-18T00:36:54;48.97;47.29;58.75;;
71034;Laerm;58847;52.378;4.740;2023-02-18T00:37:04;49.25;47.55;51.86;;
71034;Laerm;58847;52.378;4.740;2023-02-18T00:37:14;49.30;47.73;51.68;;
71034;Laerm;58847;52.378;4.740;2023-02-18T00:37:24;49.36;47.56;52.48;;
71034;Laerm;58847;52.378;4.740;2023-02-18T00:37:35;49.33;47.75;58.26;;
71034;Laerm;58847;52.378;4.740;2023-02-18T00:37:45;49.46;47.89;51.88;;
71034;Laerm;58847;52.378;4.740;2023-02-18T00:37:55;49.34;47.92;51.71;;
71034;Laerm;58847;52.378;4.740;2023-02-18T00:38:05;49.34;47.72;51.35;;
71034;Laerm;58847;52.378;4.740;2023-02-18T00:38:15;49.17;48.07;51.27;;
71034;Laerm;58847;52.378;4.740;2023-02-18T00:38:26;49.58;47.84;51.86;;
71034;Laerm;58847;52.378;4.740;2023-02-18T00:38:36;49.48;48.04;51.36;;
71034;Laerm;58847;52.378;4.740;2023-02-18T00:38:47;49.63;48.11;52.05;;
71034;Laerm;58847;52.378;4.740;2023-02-18T00:38:59;49.42;48.04;56.90;;
71034;Laerm;58847;52.378;4.740;2023-02-18T00:39:10;49.29;47.63;51.38;;
71034;Laerm;58847;52.378;4.740;2023-02-18T00:39:20;49.16;47.53;51.60;;
71034;Laerm;58847;52.378;4.740;2023-02-18T00:39:31;49.63;48.40;52.43;;
71034;Laerm;58847;52.378;4.740;2023-02-18T00:39:41;49.59;48.11;52.95;;
71034;Laerm;58847;52.378;4.740;2023-02-18T00:39:51;49.04;47.62;51.48;;
71034;Laerm;58847;52.378;4.740;2023-02-18T00:40:02;48.98;47.69;51.67;;
71034;Laerm;58847;52.378;4.740;2023-02-18T00:40:13;48.79;47.38;51.87;;
71034;Laerm;58847;52.378;4.740;2023-02-18T00:40:23;48.98;47.40;51.75;;
71034;Laerm;58847;52.378;4.740;2023-02-18T00:40:36;48.83;47.48;50.98;;
71034;Laerm;58847;52.378;4.740;2023-02-18T00:40:46;48.73;47.43;58.32;;
71034;Laerm;58847;52.378;4.740;2023-02-18T00:40:57;48.90;47.84;52.30;;
71034;Laerm;58847;52.378;4.740;2023-02-18T00:41:07;48.91;47.55;52.14;;
71034;Laerm;58847;52.378;4.740;2023-02-18T00:41:18;48.68;47.65;51.80;;
71034;Laerm;58847;52.378;4.740;2023-02-18T00:41:28;48.90;47.58;54.20;;
71034;Laerm;58847;52.378;4.740;2023-02-18T00:41:39;49.24;47.78;51.70;;
71034;Laerm;58847;52.378;4.740;2023-02-18T00:41:50;49.15;47.57;52.24;;
71034;Laerm;58847;52.378;4.740;2023-02-18T00:42:00;49.02;47.90;50.49;;
71034;Laerm;58847;52.378;4.740;2023-02-18T00:42:10;48.86;47.44;52.24;;
71034;Laerm;58847;52.378;4.740;2023-02-18T00:42:20;48.70;47.33;52.34;;
71034;Laerm;58847;52.378;4.740;2023-02-18T00:42:31;48.69;47.46;50.71;;
71034;Laerm;58847;52.378;4.740;2023-02-18T00:42:41;48.81;47.58;52.26;;
71034;Laerm;58847;52.378;4.740;2023-02-18T00:42:51;49.06;47.61;51.93;;
71034;Laerm;58847;52.378;4.740;2023-02-18T00:43:01;48.82;47.52;53.08;;
71034;Laerm;58847;52.378;4.740;2023-02-18T00:43:12;48.89;47.67;51.88;;
71034;Laerm;58847;52.378;4.740;2023-02-18T00:43:22;48.78;47.54;52.37;;
71034;Laerm;58847;52.378;4.740;2023-02-18T00:43:32;48.86;47.56;52.42;;
71034;Laerm;58847;52.378;4.740;2023-02-18T00:43:42;48.77;47.39;51.65;;
71034;Laerm;58847;52.378;4.740;2023-02-18T00:43:53;48.74;47.18;51.48;;
71034;Laerm;58847;52.378;4.740;2023-02-18T00:44:04;48.76;47.70;51.36;;
71034;Laerm;58847;52.378;4.740;2023-02-18T00:44:14;49.53;47.76;52.28;;
71034;Laerm;58847;52.378;4.740;2023-02-18T00:44:24;49.39;47.82;51.99;;
71034;Laerm;58847;52.378;4.740;2023-02-18T00:44:35;49.35;47.74;52.09;;
71034;Laerm;58847;52.378;4.740;2023-02-18T00:44:45;49.79;47.81;58.79;;
71034;Laerm;58847;52.378;4.740;2023-02-18T00:44:55;49.54;48.23;52.46;;
71034;Laerm;58847;52.378;4.740;2023-02-18T00:45:06;49.55;47.99;52.80;;
71034;Laerm;58847;52.378;4.740;2023-02-18T00:45:16;49.46;48.00;52.26;;
71034;Laerm;58847;52.378;4.740;2023-02-18T00:45:26;49.44;47.64;52.14;;
71034;Laerm;58847;52.378;4.740;2023-02-18T00:45:36;49.48;48.22;51.52;;
71034;Laerm;58847;52.378;4.740;2023-02-18T00:45:47;49.46;47.66;52.16;;
71034;Laerm;58847;52.378;4.740;2023-02-18T00:45:57;49.58;47.84;53.11;;
71034;Laerm;58847;52.378;4.740;2023-02-18T00:46:07;49.37;47.03;52.60;;
71034;Laerm;58847;52.378;4.740;2023-02-18T00:46:17;49.08;47.15;51.67;;
71034;Laerm;58847;52.378;4.740;2023-02-18T00:46:28;48.86;47.35;51.40;;
71034;Laerm;58847;52.378;4.740;2023-02-18T00:46:38;49.11;47.52;51.91;;
71034;Laerm;58847;52.378;4.740;2023-02-18T00:46:49;48.92;47.34;52.05;;
71034;Laerm;58847;52.378;4.740;2023-02-18T00:46:59;48.80;47.50;51.95;;
71034;Laerm;58847;52.378;4.740;2023-02-18T00:47:09;48.87;47.69;51.72;;
71034;Laerm;58847;52.378;4.740;2023-02-18T00:47:19;48.74;47.68;50.93;;
71034;Laerm;58847;52.378;4.740;2023-02-18T00:47:29;48.75;47.50;51.73;;
71034;Laerm;58847;52.378;4.740;2023-02-18T00:47:40;48.68;47.56;51.99;;
71034;Laerm;58847;52.378;4.740;2023-02-18T00:47:50;48.47;47.48;52.37;;
71034;Laerm;58847;52.378;4.740;2023-02-18T00:48:01;48.88;47.78;51.44;;
71034;Laerm;58847;52.378;4.740;2023-02-18T00:48:11;48.98;47.38;53.14;;
71034;Laerm;58847;52.378;4.740;2023-02-18T00:48:21;49.28;47.58;52.85;;
71034;Laerm;58847;52.378;4.740;2023-02-18T00:48:32;48.95;47.48;52.17;;
71034;Laerm;58847;52.378;4.740;2023-02-18T00:48:43;48.91;47.57;52.08;;
71034;Laerm;58847;52.378;4.740;2023-02-18T00:48:53;48.75;47.40;51.30;;
71034;Laerm;58847;52.378;4.740;2023-02-18T00:49:04;49.11;47.49;52.17;;
71034;Laerm;58847;52.378;4.740;2023-02-18T00:49:14;48.68;47.53;51.01;;
71034;Laerm;58847;52.378;4.740;2023-02-18T00:49:25;48.77;47.13;51.38;;
71034;Laerm;58847;52.378;4.740;2023-02-18T00:49:35;48.83;47.52;51.98;;
71034;Laerm;58847;52.378;4.740;2023-02-18T00:49:45;48.57;47.36;51.61;;
71034;Laerm;58847;52.378;4.740;2023-02-18T00:49:56;48.89;47.38;52.08;;
71034;Laerm;58847;52.378;4.740;2023-02-18T00:50:06;48.24;46.82;51.76;;
71034;Laerm;58847;52.378;4.740;2023-02-18T00:50:16;48.50;46.84;51.42;;
71034;Laerm;58847;52.378;4.740;2023-02-18T00:50:27;48.61;47.18;51.45;;
71034;Laerm;58847;52.378;4.740;2023-02-18T00:50:37;48.89;47.03;51.76;;
71034;Laerm;58847;52.378;4.740;2023-02-18T00:50:47;49.14;47.43;52.52;;
71034;Laerm;58847;52.378;4.740;2023-02-18T00:50:57;48.85;47.15;51.42;;
71034;Laerm;58847;52.378;4.740;2023-02-18T00:51:09;48.87;47.35;52.00;;
71034;Laerm;58847;52.378;4.740;2023-02-18T00:51:20;48.76;47.45;51.90;;
71034;Laerm;58847;52.378;4.740;2023-02-18T00:51:30;48.80;47.67;51.46;;
71034;Laerm;58847;52.378;4.740;2023-02-18T00:51:41;48.61;47.32;51.52;;
71034;Laerm;58847;52.378;4.740;2023-02-18T00:51:51;48.95;47.31;51.56;;
71034;Laerm;58847;52.378;4.740;2023-02-18T00:52:01;49.00;47.17;53.19;;
71034;Laerm;58847;52.378;4.740;2023-02-18T00:52:11;49.28;47.98;52.78;;
71034;Laerm;58847;52.378;4.740;2023-02-18T00:52:22;49.22;47.59;53.85;;
71034;Laerm;58847;52.378;4.740;2023-02-18T00:52:32;49.07;47.47;51.20;;
71034;Laerm;58847;52.378;4.740;2023-02-18T00:52:42;49.00;47.57;52.57;;
71034;Laerm;58847;52.378;4.740;2023-02-18T00:52:52;49.01;47.15;52.06;;
71034;Laerm;58847;52.378;4.740;2023-02-18T00:53:03;48.67;47.39;52.51;;
71034;Laerm;58847;52.378;4.740;2023-02-18T00:53:13;48.51;47.21;52.20;;
71034;Laerm;58847;52.378;4.740;2023-02-18T00:53:23;48.47;46.94;52.04;;
71034;Laerm;58847;52.378;4.740;2023-02-18T00:53:35;48.47;46.86;51.75;;
71034;Laerm;58847;52.378;4.740;2023-02-18T00:53:45;48.55;47.05;52.28;;
71034;Laerm;58847;52.378;4.740;2023-02-18T00:53:56;48.62;47.23;52.68;;
71034;Laerm;58847;52.378;4.740;2023-02-18T00:54:06;48.47;47.13;51.86;;
71034;Laerm;58847;52.378;4.740;2023-02-18T00:54:16;48.75;47.39;52.26;;
71034;Laerm;58847;52.378;4.740;2023-02-18T00:54:26;48.65;47.20;51.61;;
71034;Laerm;58847;52.378;4.740;2023-02-18T00:54:37;48.51;47.14;52.12;;
71034;Laerm;58847;52.378;4.740;2023-02-18T00:54:47;48.56;47.25;52.21;;
71034;Laerm;58847;52.378;4.740;2023-02-18T00:54:57;48.55;47.21;51.65;;
71034;Laerm;58847;52.378;4.740;2023-02-18T00:55:07;48.86;47.58;51.75;;
71034;Laerm;58847;52.378;4.740;2023-02-18T00:55:18;48.41;47.26;51.96;;
71034;Laerm;58847;52.378;4.740;2023-02-18T00:55:28;48.33;47.01;51.32;;
71034;Laerm;58847;52.378;4.740;2023-02-18T00:55:41;48.35;47.08;51.45;;
71034;Laerm;58847;52.378;4.740;2023-02-18T00:55:52;48.34;47.30;52.16;;
71034;Laerm;58847;52.378;4.740;2023-02-18T00:56:02;48.41;47.30;51.56;;
71034;Laerm;58847;52.378;4.740;2023-02-18T00:56:13;48.83;47.22;51.96;;
71034;Laerm;58847;52.378;4.740;2023-02-18T00:56:24;48.45;46.98;51.82;;
71034;Laerm;58847;52.378;4.740;2023-02-18T00:56:34;48.64;47.23;60.47;;
71034;Laerm;58847;52.378;4.740;2023-02-18T00:56:44;48.51;47.16;58.30;;
71034;Laerm;58847;52.378;4.740;2023-02-18T00:56:54;48.44;47.18;51.78;;
71034;Laerm;58847;52.378;4.740;2023-02-18T00:57:05;48.61;47.08;51.39;;
71034;Laerm;58847;52.378;4.740;2023-02-18T00:57:15;48.43;46.97;51.35;;
71034;Laerm;58847;52.378;4.740;2023-02-18T00:57:25;48.71;47.34;51.51;;
71034;Laerm;58847;52.378;4.740;2023-02-18T00:57:35;48.40;47.32;51.06;;
71034;Laerm;58847;52.378;4.740;2023-02-18T00:57:45;48.54;47.09;52.38;;
71034;Laerm;58847;52.378;4.740;2023-02-18T00:57:56;48.54;47.32;52.02;;
71034;Laerm;58847;52.378;4.740;2023-02-18T00:58:06;48.58;47.27;51.78;;
71034;Laerm;58847;52.378;4.740;2023-02-18T00:58:16;48.95;47.39;52.51;;
71034;Laerm;58847;52.378;4.740;2023-02-18T00:58:27;48.42;47.06;51.54;;
71034;Laerm;58847;52.378;4.740;2023-02-18T00:58:37;48.67;47.38;52.03;;
71034;Laerm;58847;52.378;4.740;2023-02-18T00:58:47;48.74;47.18;52.55;;
71034;Laerm;58847;52.378;4.740;2023-02-18T00:58:57;48.53;47.31;51.65;;
71034;Laerm;58847;52.378;4.740;2023-02-18T00:59:08;48.93;47.36;57.76;;
71034;Laerm;58847;52.378;4.740;2023-02-18T00:59:18;48.93;47.44;52.74;;